Saline, MI (48176)

5:00 PM EDT on May 29, 2017 (GMT -0400)
Harwood Farms, Saline MI | | Change Station

Elev 850 ft 42.19 °N, 83.72 °W | Updated 1 second ago

Overcast
Overcast
74.7 °F
Feels Like 76 °F
N
3.6
Wind Variable Wind from WNW
Gusts 10.0 mph

Today
High -- | Low -- °F
--% Chance of Precip.
Yesterday
High -- | Low -- °F
Precip. -- in
Pressure 29.82 in
Visibility 10.0 miles
Clouds Few 3500 ft
Scattered Clouds 8000 ft
Mostly Cloudy 9500 ft
Heat Index 76 °F
Dew Point 28 °F
Humidity 18%
Rainfall 0.00 in
Snow Depth Not available.
6:02 AM 9:02 PM
Waxing Crescent, 22% visible
METAR KARB 292053Z 28011G18KT 10SM -TSRA FEW035 SCT080 BKN095 23/12 A2983 RMK AO2 LTG DSNT E RAE07B45 TSB40 SLP098 P0001 60001 T02280122 53007
Pressure 29.82 in
Visibility 10.0 miles
Clouds Few 3500 ft
Scattered Clouds 8000 ft
Mostly Cloudy 9500 ft
Heat Index 76 °F
Dew Point 28 °F
Humidity 18%
Rainfall 0.00 in
Snow Depth Not available.
6:02 AM 9:02 PM
Waxing Crescent, 22% visible
METAR KARB 292053Z 28011G18KT 10SM -TSRA FEW035 SCT080 BKN095 23/12 A2983 RMK AO2 LTG DSNT E RAE07B45 TSB40 SLP098 P0001 60001 T02280122 53007

Get Severe Weather Alerts

Thanks for signing up!

Be on the lookout for a verification email in your inbox.

You'll start receiving the daily forecast at 6 AM.

×

10-Day Weather Forecast

Almanac

Astronomy

May. 29, 2017 Rise Set
Actual Time
Civil Twilight
Nautical Twilight
Astronomical Twilight
Moon
Length of Visible Light
Length of Day
Tomorrow will be .
, % of the Moon is Illuminated

Today's Extremes

State Highs State Lows

Community

WunderPhotos

Category 6

Welcome to Category 6. This is the collective home for Weather Underground's featured writeups by Dr. Jeff Masters (right), Bob Henson (left), Chris Burt, and other regular contributors.

Nearby

Air Quality

  Air Quality AQ Index Pollutant
Not available.

Snow Depth

Station Depth Elevation

Earthquake Activity

City Distance Mag. Time & Date
Minimum magnitude displayed is 2.5.

Coastal Water Temperatures

Place Temperature

Stations

Nearby Weather Stations

Station Location Temp. Windchill Dew Point Humidity Wind Precip. Elev Updated Type
                   

Watches & Warnings

There are currently no watches in effect.